Time;durP1;ratioP1;P1;durP2;ratioP2;P2;SDS_P1;SDS_P2;PMS_P1;PMS_P2;Temp;Humidity;BMP_temperature;BMP_pressure;BME280_temperature;BME280_humidity;BME280_pressure;Samples;Min_cycle;Max_cycle;Signal;HPM_P1;HPM_P2
2024/03/27 00:01:21;;;;;;;6.40;3.42;;;;;;;;;;5095505;28;20034;-58
2024/03/27 00:03:48;;;;;;;8.18;2.88;;;;;;;;;;5095258;28;20408;-58
2024/03/27 00:06:13;;;;;;;9.48;3.05;;;;;;;;;;5083700;28;20025;-57
2024/03/27 00:08:40;;;;;;;5.82;3.05;;;;;;;;;;5075171;28;20036;-57
2024/03/27 00:11:06;;;;;;;4.75;2.38;;;;;;;;;;5087721;28;20044;-58
2024/03/27 00:13:32;;;;;;;6.03;3.08;;;;;;;;;;5094853;28;20097;-58
2024/03/27 00:15:58;;;;;;;6.68;3.20;;;;;;;;;;5094827;28;20028;-58
2024/03/27 00:18:24;;;;;;;6.10;2.70;;;;;;;;;;5095445;28;20028;-55
2024/03/27 00:20:50;;;;;;;10.52;3.17;;;;;;;;;;5094880;28;20020;-55
2024/03/27 00:23:16;;;;;;;12.05;3.40;;;;;;;;;;5091021;28;20028;-54
2024/03/27 00:25:43;;;;;;;8.00;2.78;;;;;;;;;;5091239;28;20070;-55
2024/03/27 00:28:08;;;;;;;7.57;2.90;;;;;;;;;;5091695;28;20031;-53
2024/03/27 00:30:35;;;;;;;4.65;2.60;;;;;;;;;;5084432;28;20028;-53
2024/03/27 00:33:02;;;;;;;6.43;2.95;;;;;;;;;;5080351;28;20048;-53
2024/03/27 00:35:28;;;;;;;6.85;2.83;;;;;;;;;;5094943;28;20077;-52
2024/03/27 00:37:54;;;;;;;5.30;3.00;;;;;;;;;;5094804;28;20029;-53
2024/03/27 00:40:20;;;;;;;8.50;3.35;;;;;;;;;;5094874;28;20399;-54
2024/03/27 00:42:46;;;;;;;6.28;2.78;;;;;;;;;;5094450;28;20028;-53
2024/03/27 00:45:15;;;;;;;4.85;2.92;;;;;;;;;;5093407;28;20508;-52
2024/03/27 00:47:41;;;;;;;7.45;3.28;;;;;;;;;;5094613;28;20035;-53
2024/03/27 00:50:08;;;;;;;6.85;2.80;;;;;;;;;;5094233;28;20054;-53
2024/03/27 00:52:34;;;;;;;4.88;3.00;;;;;;;;;;5093104;28;20028;-54
2024/03/27 00:55:00;;;;;;;5.57;2.95;;;;;;;;;;5094316;28;20033;-52
2024/03/27 00:57:26;;;;;;;6.45;2.67;;;;;;;;;;5094367;28;20480;-52
2024/03/27 00:59:52;;;;;;;7.65;2.92;;;;;;;;;;5090552;28;20510;-53
2024/03/27 01:02:17;;;;;;;6.35;2.95;;;;;;;;;;5086202;28;20472;-53
2024/03/27 01:04:44;;;;;;;6.53;3.15;;;;;;;;;;5080654;28;20727;-54
2024/03/27 01:07:10;;;;;;;8.40;3.22;;;;;;;;;;5091491;28;20039;-52
2024/03/27 01:09:35;;;;;;;6.18;3.13;;;;;;;;;;5087161;28;20388;-54
2024/03/27 01:12:01;;;;;;;5.93;2.85;;;;;;;;;;5094183;28;20419;-50
2024/03/27 01:14:27;;;;;;;7.68;2.78;;;;;;;;;;5093724;28;20031;-54
2024/03/27 01:16:53;;;;;;;11.05;3.70;;;;;;;;;;5075855;28;20043;-52
2024/03/27 01:19:19;;;;;;;7.10;2.80;;;;;;;;;;5074076;28;20395;-53
2024/03/27 01:21:45;;;;;;;5.95;2.70;;;;;;;;;;5091584;28;20454;-54
2024/03/27 01:24:11;;;;;;;6.78;2.90;;;;;;;;;;5087118;28;20029;-53
2024/03/27 01:26:37;;;;;;;6.22;2.80;;;;;;;;;;5082293;28;20048;-52
2024/03/27 01:29:03;;;;;;;6.47;3.45;;;;;;;;;;5094006;28;20028;-59
2024/03/27 01:31:29;;;;;;;6.00;2.88;;;;;;;;;;5092615;28;20031;-59
2024/03/27 01:33:55;;;;;;;8.80;3.38;;;;;;;;;;5086079;28;20032;-59
2024/03/27 01:36:21;;;;;;;6.80;2.97;;;;;;;;;;5088275;28;20028;-59
2024/03/27 01:38:47;;;;;;;7.15;3.03;;;;;;;;;;5093438;28;20032;-58
2024/03/27 01:41:13;;;;;;;9.38;3.58;;;;;;;;;;5093484;28;20032;-57
2024/03/27 01:43:39;;;;;;;5.93;2.85;;;;;;;;;;5093916;28;20020;-57
2024/03/27 01:46:10;;;;;;;6.63;3.28;;;;;;;;;;5085142;28;20154;-57
2024/03/27 01:48:36;;;;;;;6.43;2.42;;;;;;;;;;5086389;28;20144;-58
2024/03/27 01:51:02;;;;;;;5.88;3.17;;;;;;;;;;5080292;28;20036;-58
2024/03/27 01:53:29;;;;;;;9.38;3.17;;;;;;;;;;5093027;28;20165;-57
2024/03/27 01:55:55;;;;;;;6.40;3.30;;;;;;;;;;5093438;28;20110;-57
2024/03/27 01:58:22;;;;;;;5.75;2.95;;;;;;;;;;5093173;28;20036;-57
2024/03/27 02:00:48;;;;;;;8.13;3.85;;;;;;;;;;5090857;28;20103;-53
2024/03/27 02:03:14;;;;;;;6.75;3.15;;;;;;;;;;5092769;28;20055;-53
2024/03/27 02:05:40;;;;;;;8.38;3.47;;;;;;;;;;5093167;28;20027;-53
2024/03/27 02:08:06;;;;;;;9.18;3.80;;;;;;;;;;5091451;28;20043;-52
2024/03/27 02:10:32;;;;;;;5.57;3.53;;;;;;;;;;5087554;28;20038;-54
2024/03/27 02:12:58;;;;;;;8.18;2.97;;;;;;;;;;5092479;28;20020;-54
2024/03/27 02:15:24;;;;;;;7.82;3.30;;;;;;;;;;5092817;28;20085;-53
2024/03/27 02:17:51;;;;;;;5.47;2.97;;;;;;;;;;5084546;28;20119;-53
2024/03/27 02:20:17;;;;;;;9.48;3.00;;;;;;;;;;5097734;27;20024;-54
2024/03/27 02:22:44;;;;;;;5.65;2.97;;;;;;;;;;5088845;28;20048;-54
2024/03/27 02:25:22;;;;;;;6.13;3.05;;;;;;;;;;5088306;28;20024;-52
2024/03/27 02:27:48;;;;;;;6.80;2.88;;;;;;;;;;5090555;28;20032;-53
2024/03/27 02:30:14;;;;;;;6.20;3.20;;;;;;;;;;5087904;28;20526;-53
2024/03/27 02:32:40;;;;;;;6.18;2.83;;;;;;;;;;5088497;28;20031;-53
2024/03/27 02:35:06;;;;;;;5.53;3.00;;;;;;;;;;5087112;28;20108;-55
2024/03/27 02:37:32;;;;;;;5.72;2.90;;;;;;;;;;5092605;28;20054;-53
2024/03/27 02:39:58;;;;;;;8.35;3.47;;;;;;;;;;5080500;28;20024;-54
2024/03/27 02:42:23;;;;;;;9.18;3.20;;;;;;;;;;5092063;28;21279;-54
2024/03/27 02:44:49;;;;;;;11.73;2.88;;;;;;;;;;5097668;28;20391;-51
2024/03/27 02:47:15;;;;;;;6.90;2.95;;;;;;;;;;5083094;28;20396;-53
2024/03/27 02:49:41;;;;;;;9.15;3.50;;;;;;;;;;5092372;28;20404;-53
2024/03/27 02:52:07;;;;;;;9.65;3.50;;;;;;;;;;5091756;28;20047;-54
2024/03/27 02:54:33;;;;;;;12.35;3.30;;;;;;;;;;5092375;28;20376;-55
2024/03/27 02:56:59;;;;;;;5.95;3.28;;;;;;;;;;5089321;28;20681;-54
2024/03/27 02:59:25;;;;;;;6.97;3.17;;;;;;;;;;5091991;28;20028;-54
2024/03/27 03:01:51;;;;;;;8.77;2.97;;;;;;;;;;5090693;28;20039;-53
2024/03/27 03:04:17;;;;;;;7.05;3.60;;;;;;;;;;5086464;28;20027;-53
2024/03/27 03:06:43;;;;;;;7.80;3.42;;;;;;;;;;5085820;28;20025;-53
2024/03/27 03:09:09;;;;;;;7.47;3.60;;;;;;;;;;5089354;28;20368;-52
2024/03/27 03:11:35;;;;;;;11.55;3.50;;;;;;;;;;5091132;28;20032;-54
2024/03/27 03:14:01;;;;;;;6.72;3.10;;;;;;;;;;5091841;28;20106;-53
2024/03/27 03:16:27;;;;;;;11.88;3.92;;;;;;;;;;5087692;28;20032;-53
2024/03/27 03:18:53;;;;;;;8.60;3.05;;;;;;;;;;5092355;28;20097;-54
2024/03/27 03:21:19;;;;;;;10.13;4.28;;;;;;;;;;5088808;28;20507;-52
2024/03/27 03:23:45;;;;;;;7.93;3.47;;;;;;;;;;5071457;28;20396;-54
2024/03/27 03:26:11;;;;;;;6.90;3.33;;;;;;;;;;5074960;28;20430;-53
2024/03/27 03:28:37;;;;;;;6.05;2.90;;;;;;;;;;5087882;28;20364;-53
2024/03/27 03:31:06;;;;;;;8.75;3.92;;;;;;;;;;5087930;28;20115;-53
2024/03/27 03:33:32;;;;;;;7.30;3.08;;;;;;;;;;5087101;28;20036;-53
2024/03/27 03:35:58;;;;;;;8.52;3.75;;;;;;;;;;5091887;28;20032;-54
2024/03/27 03:38:25;;;;;;;5.65;2.65;;;;;;;;;;5091676;28;20020;-54
2024/03/27 03:40:55;;;;;;;6.78;2.80;;;;;;;;;;5091718;28;20032;-50
2024/03/27 03:43:21;;;;;;;6.80;2.83;;;;;;;;;;5091512;28;20063;-52
2024/03/27 03:45:47;;;;;;;7.20;2.92;;;;;;;;;;5091771;28;20082;-53
2024/03/27 03:48:13;;;;;;;6.07;2.70;;;;;;;;;;5090059;28;20023;-54
2024/03/27 03:50:39;;;;;;;10.25;2.78;;;;;;;;;;5090322;28;20535;-52
2024/03/27 03:53:05;;;;;;;6.75;3.05;;;;;;;;;;5090396;28;20048;-52
2024/03/27 03:55:31;;;;;;;6.60;2.97;;;;;;;;;;5085730;28;20099;-52
2024/03/27 03:57:57;;;;;;;6.53;2.33;;;;;;;;;;5091397;28;20115;-54
2024/03/27 04:00:24;;;;;;;6.97;3.50;;;;;;;;;;5081066;28;20243;-53
2024/03/27 04:02:51;;;;;;;11.25;3.47;;;;;;;;;;5092718;28;20447;-54
2024/03/27 04:05:17;;;;;;;10.75;2.95;;;;;;;;;;5095518;28;20099;-56
2024/03/27 04:07:43;;;;;;;12.55;2.95;;;;;;;;;;5084919;28;20102;-54
2024/03/27 04:10:09;;;;;;;6.45;2.75;;;;;;;;;;5091532;28;20162;-53
2024/03/27 04:12:35;;;;;;;5.50;2.80;;;;;;;;;;5089710;28;20024;-53
2024/03/27 04:15:01;;;;;;;7.88;2.75;;;;;;;;;;5090121;28;20028;-52
2024/03/27 04:17:27;;;;;;;6.68;3.17;;;;;;;;;;5090322;28;20063;-54
2024/03/27 04:19:53;;;;;;;9.18;3.17;;;;;;;;;;5074396;28;20062;-54
2024/03/27 04:22:19;;;;;;;5.32;2.70;;;;;;;;;;5081108;28;20044;-53
2024/03/27 04:24:45;;;;;;;9.88;3.28;;;;;;;;;;5093092;28;20027;-54
2024/03/27 04:27:12;;;;;;;5.10;2.80;;;;;;;;;;5086933;28;20089;-54
2024/03/27 04:29:38;;;;;;;5.88;2.85;;;;;;;;;;5093386;28;20024;-56
2024/03/27 04:32:04;;;;;;;7.70;3.22;;;;;;;;;;5092070;28;20081;-55
2024/03/27 04:34:30;;;;;;;7.35;2.95;;;;;;;;;;5077152;28;20035;-57
2024/03/27 04:36:56;;;;;;;5.28;2.92;;;;;;;;;;5081398;28;20476;-58
2024/03/27 04:39:22;;;;;;;7.45;2.78;;;;;;;;;;5094733;28;20032;-57
2024/03/27 04:41:48;;;;;;;7.13;3.33;;;;;;;;;;5094702;28;20438;-58
2024/03/27 04:44:14;;;;;;;8.23;3.20;;;;;;;;;;5107493;28;20041;-57
2024/03/27 04:46:40;;;;;;;7.20;3.70;;;;;;;;;;5093755;28;20095;-58
2024/03/27 04:49:06;;;;;;;6.10;3.22;;;;;;;;;;5079007;28;20494;-56
2024/03/27 04:51:32;;;;;;;7.25;2.85;;;;;;;;;;5076931;28;20041;-58
2024/03/27 04:53:58;;;;;;;8.45;3.03;;;;;;;;;;5093976;28;20103;-57
2024/03/27 04:56:24;;;;;;;6.22;2.85;;;;;;;;;;5093555;28;20038;-57
2024/03/27 04:58:50;;;;;;;6.82;3.38;;;;;;;;;;5093309;28;20107;-55
2024/03/27 05:01:16;;;;;;;8.32;2.95;;;;;;;;;;5093843;28;20043;-58
2024/03/27 05:03:42;;;;;;;8.07;3.10;;;;;;;;;;5078625;28;20020;-56
2024/03/27 05:06:08;;;;;;;7.53;2.70;;;;;;;;;;5079924;28;20027;-54
2024/03/27 05:08:34;;;;;;;6.07;2.70;;;;;;;;;;5089822;28;20078;-57
2024/03/27 05:11:01;;;;;;;5.97;3.00;;;;;;;;;;5093261;28;20031;-57
2024/03/27 05:13:27;;;;;;;5.03;2.70;;;;;;;;;;5092164;28;20032;-57
2024/03/27 05:15:53;;;;;;;13.07;2.88;;;;;;;;;;5089814;28;20055;-57
2024/03/27 05:18:19;;;;;;;8.68;3.30;;;;;;;;;;5090874;28;20032;-55
2024/03/27 05:20:46;;;;;;;5.90;2.63;;;;;;;;;;5088070;28;20031;-57
2024/03/27 05:23:13;;;;;;;5.80;2.88;;;;;;;;;;5089074;28;20097;-58
2024/03/27 05:25:39;;;;;;;8.73;2.95;;;;;;;;;;5092888;28;20020;-56
2024/03/27 05:28:05;;;;;;;8.48;2.88;;;;;;;;;;5092622;28;20027;-57
2024/03/27 05:30:32;;;;;;;5.85;2.95;;;;;;;;;;5092791;28;20085;-56
2024/03/27 05:32:58;;;;;;;4.90;2.50;;;;;;;;;;5079927;28;20552;-56
2024/03/27 05:35:24;;;;;;;11.18;3.13;;;;;;;;;;5091651;28;20040;-57
2024/03/27 05:37:50;;;;;;;9.30;2.85;;;;;;;;;;5088782;28;20028;-53
2024/03/27 05:40:16;;;;;;;9.13;3.50;;;;;;;;;;5092739;28;20036;-52
2024/03/27 05:42:44;;;;;;;7.00;3.22;;;;;;;;;;5078504;28;20366;-52
2024/03/27 05:45:10;;;;;;;7.60;2.92;;;;;;;;;;5084351;28;20477;-52
2024/03/27 05:47:37;;;;;;;7.45;2.80;;;;;;;;;;5091370;28;20089;-52
2024/03/27 05:50:05;;;;;;;7.93;2.83;;;;;;;;;;5089796;28;20029;-55
2024/03/27 05:52:31;;;;;;;9.45;2.80;;;;;;;;;;5088001;28;20051;-54
2024/03/27 05:54:57;;;;;;;7.97;2.90;;;;;;;;;;5092168;28;20480;-54
2024/03/27 05:57:23;;;;;;;3.50;2.05;;;;;;;;;;5090468;28;20039;-55
2024/03/27 05:59:49;;;;;;;7.22;2.75;;;;;;;;;;5083866;28;20028;-52
2024/03/27 06:02:15;;;;;;;6.80;2.85;;;;;;;;;;5091154;28;20078;-53
2024/03/27 06:04:41;;;;;;;5.43;2.75;;;;;;;;;;5091484;28;20012;-54
2024/03/27 06:07:07;;;;;;;5.80;2.78;;;;;;;;;;5092416;28;20133;-55
2024/03/27 06:09:34;;;;;;;6.80;2.40;;;;;;;;;;5091511;28;20017;-51
2024/03/27 06:12:00;;;;;;;7.20;2.90;;;;;;;;;;5084327;28;20033;-53
2024/03/27 06:14:27;;;;;;;8.15;3.17;;;;;;;;;;5092550;28;20024;-52
2024/03/27 06:16:52;;;;;;;10.57;2.75;;;;;;;;;;5089837;28;20499;-52
2024/03/27 06:19:18;;;;;;;7.22;3.10;;;;;;;;;;5074789;28;20028;-54
2024/03/27 06:21:44;;;;;;;7.22;2.70;;;;;;;;;;5085585;28;20044;-54
2024/03/27 06:24:10;;;;;;;10.55;2.78;;;;;;;;;;5091316;28;20028;-55
2024/03/27 06:26:36;;;;;;;5.40;2.47;;;;;;;;;;5086480;28;20028;-53
2024/03/27 06:29:02;;;;;;;5.95;2.50;;;;;;;;;;5090539;28;20024;-53
2024/03/27 06:31:28;;;;;;;10.02;2.63;;;;;;;;;;5090255;28;20031;-53
2024/03/27 06:33:55;;;;;;;13.48;2.78;;;;;;;;;;5090981;28;20031;-53
2024/03/27 06:36:21;;;;;;;8.10;2.88;;;;;;;;;;5091850;28;20034;-53
2024/03/27 06:38:50;;;;;;;6.93;2.33;;;;;;;;;;5087560;28;20518;-51
2024/03/27 06:41:16;;;;;;;5.50;2.53;;;;;;;;;;5091879;28;20129;-54
2024/03/27 06:43:42;;;;;;;5.25;2.28;;;;;;;;;;5086617;28;20383;-52
2024/03/27 06:46:08;;;;;;;6.10;2.63;;;;;;;;;;5089355;28;20031;-54
2024/03/27 06:48:43;;;;;;;8.23;2.60;;;;;;;;;;5086623;28;20024;-55
2024/03/27 06:51:09;;;;;;;5.68;2.45;;;;;;;;;;5089552;28;20028;-56
2024/03/27 06:53:36;;;;;;;6.97;2.55;;;;;;;;;;5091198;28;20028;-55
2024/03/27 06:56:05;;;;;;;4.35;2.28;;;;;;;;;;5091376;28;20115;-55
2024/03/27 06:58:31;;;;;;;5.68;2.42;;;;;;;;;;5091290;28;20054;-55
2024/03/27 07:00:58;;;;;;;4.97;2.60;;;;;;;;;;5091364;28;20020;-56
2024/03/27 07:03:24;;;;;;;8.10;2.75;;;;;;;;;;5079272;28;20501;-54
2024/03/27 07:05:50;;;;;;;3.35;1.77;;;;;;;;;;5085928;28;20032;-55
2024/03/27 07:08:16;;;;;;;4.68;2.00;;;;;;;;;;5090111;28;20081;-55
2024/03/27 07:10:42;;;;;;;9.35;2.58;;;;;;;;;;5089404;28;20016;-55
2024/03/27 07:13:08;;;;;;;5.70;2.50;;;;;;;;;;5086380;28;20040;-55
2024/03/27 07:15:35;;;;;;;8.07;2.92;;;;;;;;;;5083326;28;20032;-55
2024/03/27 07:18:02;;;;;;;4.10;2.08;;;;;;;;;;5086865;28;20047;-56
2024/03/27 07:20:28;;;;;;;8.23;2.38;;;;;;;;;;5081481;28;20468;-55
2024/03/27 07:22:54;;;;;;;5.90;2.85;;;;;;;;;;5084895;28;20051;-54
2024/03/27 07:25:20;;;;;;;6.90;3.00;;;;;;;;;;5088088;28;20032;-55
2024/03/27 07:27:46;;;;;;;4.43;2.13;;;;;;;;;;5086775;28;20446;-55
2024/03/27 07:30:12;;;;;;;4.40;2.28;;;;;;;;;;5085250;28;20349;-55
2024/03/27 07:32:38;;;;;;;8.20;2.35;;;;;;;;;;5082263;28;20157;-55
2024/03/27 07:35:04;;;;;;;5.60;2.20;;;;;;;;;;5084453;28;20480;-55
2024/03/27 07:37:30;;;;;;;5.13;2.50;;;;;;;;;;5077332;28;20020;-55
2024/03/27 07:39:56;;;;;;;7.25;2.45;;;;;;;;;;5083322;28;20039;-55
2024/03/27 07:42:22;;;;;;;6.07;2.10;;;;;;;;;;5083320;28;20020;-55
2024/03/27 07:44:48;;;;;;;7.18;2.60;;;;;;;;;;5094501;28;20073;-55
2024/03/27 07:47:14;;;;;;;6.03;2.50;;;;;;;;;;5085787;28;20020;-55
2024/03/27 07:49:40;;;;;;;6.13;2.50;;;;;;;;;;5085388;28;20020;-56
2024/03/27 07:52:06;;;;;;;5.97;2.58;;;;;;;;;;5089544;28;20024;-55
2024/03/27 07:54:32;;;;;;;4.68;2.05;;;;;;;;;;5085695;28;20396;-56
2024/03/27 07:57:05;;;;;;;6.72;2.28;;;;;;;;;;5083983;28;20028;-55
2024/03/27 07:59:31;;;;;;;7.50;2.40;;;;;;;;;;5092211;28;20024;-60
2024/03/27 08:01:57;;;;;;;5.80;2.22;;;;;;;;;;5089862;28;20044;-59
2024/03/27 08:04:23;;;;;;;4.07;2.33;;;;;;;;;;5084606;28;20016;-59
2024/03/27 08:06:49;;;;;;;7.95;2.30;;;;;;;;;;5089309;28;20074;-59
2024/03/27 08:09:15;;;;;;;6.28;2.45;;;;;;;;;;5080192;28;20579;-59
2024/03/27 08:11:41;;;;;;;6.05;2.65;;;;;;;;;;5090555;28;20036;-60
2024/03/27 08:14:07;;;;;;;5.60;3.05;;;;;;;;;;5093890;28;20035;-60
2024/03/27 08:16:33;;;;;;;4.53;2.30;;;;;;;;;;5094126;28;20031;-59
2024/03/27 08:18:59;;;;;;;4.63;2.28;;;;;;;;;;5085979;28;20039;-59
2024/03/27 08:21:25;;;;;;;6.78;2.47;;;;;;;;;;5082531;28;20044;-60
2024/03/27 08:23:51;;;;;;;7.10;2.00;;;;;;;;;;5085224;28;20056;-58
2024/03/27 08:26:17;;;;;;;4.25;2.22;;;;;;;;;;5092711;28;20081;-59
2024/03/27 08:28:43;;;;;;;6.70;2.13;;;;;;;;;;5084929;28;20103;-60
2024/03/27 08:31:09;;;;;;;5.50;2.20;;;;;;;;;;5093522;28;20468;-60
2024/03/27 08:33:35;;;;;;;4.97;2.30;;;;;;;;;;5092152;28;20491;-59
2024/03/27 08:36:04;;;;;;;4.38;1.80;;;;;;;;;;5086997;28;20484;-60
2024/03/27 08:38:30;;;;;;;3.35;1.45;;;;;;;;;;5092955;28;20032;-59
2024/03/27 08:40:58;;;;;;;4.63;1.80;;;;;;;;;;5088314;28;20115;-59
2024/03/27 08:43:24;;;;;;;6.40;1.92;;;;;;;;;;5093793;28;20032;-60
2024/03/27 08:45:50;;;;;;;10.85;2.17;;;;;;;;;;5085273;28;20132;-60
2024/03/27 08:48:16;;;;;;;7.43;2.08;;;;;;;;;;5089882;28;20043;-59
2024/03/27 08:50:42;;;;;;;3.08;1.80;;;;;;;;;;5093764;28;20090;-59
2024/03/27 08:53:08;;;;;;;6.40;2.08;;;;;;;;;;5092613;28;20020;-60
2024/03/27 08:55:40;;;;;;;4.00;2.05;;;;;;;;;;5093903;28;20474;-60
2024/03/27 08:58:07;;;;;;;5.22;2.30;;;;;;;;;;5080457;28;20036;-59
2024/03/27 09:00:33;;;;;;;3.95;1.80;;;;;;;;;;5086521;28;20107;-60
2024/03/27 09:02:59;;;;;;;4.28;2.03;;;;;;;;;;5089553;28;20424;-58
2024/03/27 09:05:25;;;;;;;9.35;2.00;;;;;;;;;;5080105;28;20043;-60
2024/03/27 09:07:51;;;;;;;4.50;2.17;;;;;;;;;;5091291;28;20164;-60
2024/03/27 09:10:17;;;;;;;5.07;2.00;;;;;;;;;;5085216;28;20510;-60
2024/03/27 09:12:43;;;;;;;8.38;2.40;;;;;;;;;;5086298;28;20027;-60
2024/03/27 09:15:10;;;;;;;4.65;1.77;;;;;;;;;;5093400;28;20467;-60
2024/03/27 09:17:37;;;;;;;5.50;1.80;;;;;;;;;;5081292;28;20361;-60
2024/03/27 09:20:03;;;;;;;3.42;1.92;;;;;;;;;;5090825;28;20066;-57
2024/03/27 09:22:31;;;;;;;3.75;1.98;;;;;;;;;;5092308;28;20048;-60
2024/03/27 09:24:57;;;;;;;1.92;1.40;;;;;;;;;;5089927;28;20119;-61
2024/03/27 09:27:23;;;;;;;5.40;1.95;;;;;;;;;;5087573;28;20028;-60
2024/03/27 09:29:53;;;;;;;9.02;1.80;;;;;;;;;;5084783;28;20032;-60
2024/03/27 09:32:19;;;;;;;2.45;1.50;;;;;;;;;;5092278;28;20032;-60
2024/03/27 09:34:46;;;;;;;4.00;1.60;;;;;;;;;;5082112;28;20422;-60
2024/03/27 09:37:12;;;;;;;2.83;1.55;;;;;;;;;;5078597;28;20028;-59
2024/03/27 09:39:38;;;;;;;9.15;2.28;;;;;;;;;;5089956;28;20043;-61
2024/03/27 09:42:05;;;;;;;7.03;2.10;;;;;;;;;;5091163;28;20028;-59
2024/03/27 09:44:31;;;;;;;4.47;1.60;;;;;;;;;;5086845;28;20051;-60
2024/03/27 09:47:00;;;;;;;5.05;1.67;;;;;;;;;;5092484;28;20411;-59
2024/03/27 09:49:29;;;;;;;5.10;1.70;;;;;;;;;;5086818;28;20115;-62
2024/03/27 09:51:58;;;;;;;3.90;1.83;;;;;;;;;;5083520;28;20039;-59
2024/03/27 09:54:30;;;;;;;3.95;1.65;;;;;;;;;;5092280;28;20020;-60
2024/03/27 09:56:56;;;;;;;5.60;1.98;;;;;;;;;;5082869;28;20032;-60
2024/03/27 09:59:22;;;;;;;3.92;1.77;;;;;;;;;;5089372;28;20034;-60
2024/03/27 10:02:04;;;;;;;3.00;1.20;;;;;;;;;;5088801;28;20028;-60
2024/03/27 10:04:30;;;;;;;3.47;1.70;;;;;;;;;;5087610;28;20035;-59
2024/03/27 10:06:56;;;;;;;4.13;2.00;;;;;;;;;;5080305;28;20091;-60
2024/03/27 10:09:22;;;;;;;3.08;1.27;;;;;;;;;;5105821;28;20028;-60
2024/03/27 10:11:49;;;;;;;6.97;2.05;;;;;;;;;;5083846;28;20032;-60
2024/03/27 10:14:15;;;;;;;4.07;1.55;;;;;;;;;;5090401;28;20525;-59
2024/03/27 10:16:41;;;;;;;4.30;1.98;;;;;;;;;;5092119;28;20028;-59
2024/03/27 10:19:07;;;;;;;4.63;1.95;;;;;;;;;;5090125;28;20074;-55
2024/03/27 10:21:33;;;;;;;4.50;1.65;;;;;;;;;;5091390;28;20653;-55
2024/03/27 10:23:59;;;;;;;3.45;1.40;;;;;;;;;;5083947;28;20036;-55
2024/03/27 10:26:28;;;;;;;3.72;1.50;;;;;;;;;;5092575;28;20102;-56
2024/03/27 10:28:56;;;;;;;7.75;2.03;;;;;;;;;;5091542;28;20063;-57
2024/03/27 10:31:22;;;;;;;3.88;1.98;;;;;;;;;;5092014;28;20030;-55
2024/03/27 10:33:48;;;;;;;2.58;1.60;;;;;;;;;;5086366;28;20802;-55
2024/03/27 10:36:20;;;;;;;3.90;1.80;;;;;;;;;;5084016;28;20052;-55
2024/03/27 10:38:47;;;;;;;3.38;1.55;;;;;;;;;;5088017;28;20472;-55
2024/03/27 10:41:14;;;;;;;3.72;1.70;;;;;;;;;;5079208;28;20475;-56
2024/03/27 10:43:40;;;;;;;4.03;1.50;;;;;;;;;;5089897;28;20024;-55
2024/03/27 10:46:06;;;;;;;6.93;1.63;;;;;;;;;;5091811;28;20107;-54
2024/03/27 10:48:36;;;;;;;4.63;1.88;;;;;;;;;;5087016;28;20775;-55
2024/03/27 10:51:03;;;;;;;2.78;1.60;;;;;;;;;;5091855;28;20028;-55
2024/03/27 10:53:30;;;;;;;2.35;1.45;;;;;;;;;;5083983;28;20387;-55
2024/03/27 10:55:56;;;;;;;3.20;1.50;;;;;;;;;;5086082;28;20032;-55
2024/03/27 10:58:22;;;;;;;1.92;1.30;;;;;;;;;;5088143;28;20036;-53
2024/03/27 11:00:49;;;;;;;2.45;1.35;;;;;;;;;;5091467;28;20365;-57
2024/03/27 11:03:15;;;;;;;3.35;1.50;;;;;;;;;;5082003;28;20029;-55
2024/03/27 11:05:48;;;;;;;2.85;1.40;;;;;;;;;;5091515;28;20020;-55
2024/03/27 11:08:17;;;;;;;5.15;1.70;;;;;;;;;;5090929;28;20642;-53
2024/03/27 11:10:43;;;;;;;2.67;1.42;;;;;;;;;;5088801;28;20069;-52
2024/03/27 11:13:10;;;;;;;3.75;1.33;;;;;;;;;;5082527;28;20028;-55
2024/03/27 11:15:38;;;;;;;4.38;1.63;;;;;;;;;;5084553;28;20039;-53
2024/03/27 11:18:13;;;;;;;3.60;1.52;;;;;;;;;;5083195;28;20092;-55
2024/03/27 11:20:49;;;;;;;2.95;1.38;;;;;;;;;;5080342;28;20043;-55
2024/03/27 11:23:15;;;;;;;2.28;1.30;;;;;;;;;;5089270;28;20044;-53
2024/03/27 11:25:41;;;;;;;3.17;1.13;;;;;;;;;;5090064;28;20030;-55
2024/03/27 11:28:16;;;;;;;4.53;1.27;;;;;;;;;;5090207;28;20085;-55
2024/03/27 11:30:45;;;;;;;4.80;1.50;;;;;;;;;;5088909;28;20369;-59
2024/03/27 11:33:12;;;;;;;3.85;1.10;;;;;;;;;;5088268;28;20502;-59
2024/03/27 11:35:39;;;;;;;2.47;1.30;;;;;;;;;;5092205;28;20024;-59
2024/03/27 11:38:05;;;;;;;4.47;1.38;;;;;;;;;;5093103;28;20074;-59
2024/03/27 11:40:31;;;;;;;3.60;1.35;;;;;;;;;;5092209;28;20035;-58
2024/03/27 11:42:57;;;;;;;2.40;1.33;;;;;;;;;;5088976;28;20055;-58
2024/03/27 11:45:24;;;;;;;5.40;1.63;;;;;;;;;;5093722;28;20017;-57
2024/03/27 11:47:54;;;;;;;3.08;1.35;;;;;;;;;;5088829;28;20032;-59
2024/03/27 11:50:21;;;;;;;6.35;1.92;;;;;;;;;;5093648;28;20812;-60
2024/03/27 11:52:47;;;;;;;2.10;1.05;;;;;;;;;;5094344;28;20032;-57
2024/03/27 11:55:14;;;;;;;2.55;1.00;;;;;;;;;;5095211;28;20533;-57
2024/03/27 11:57:40;;;;;;;2.47;1.40;;;;;;;;;;5091403;28;20032;-59
2024/03/27 12:00:11;;;;;;;2.00;0.93;;;;;;;;;;5094510;28;20077;-57
2024/03/27 12:02:39;;;;;;;4.13;1.55;;;;;;;;;;5090660;28;20539;-59
2024/03/27 12:05:05;;;;;;;2.22;1.02;;;;;;;;;;5088466;28;20066;-56
2024/03/27 12:07:32;;;;;;;1.40;0.98;;;;;;;;;;5094707;28;20036;-57
2024/03/27 12:10:00;;;;;;;2.83;1.05;;;;;;;;;;5094610;28;20080;-57
2024/03/27 12:12:26;;;;;;;4.80;1.30;;;;;;;;;;5090638;28;20078;-56
2024/03/27 12:14:53;;;;;;;3.00;0.98;;;;;;;;;;5094663;28;20025;-57
2024/03/27 12:17:20;;;;;;;1.73;0.88;;;;;;;;;;5094300;28;20472;-57
2024/03/27 12:19:53;;;;;;;4.20;1.10;;;;;;;;;;5090059;28;20080;-56
2024/03/27 12:22:19;;;;;;;3.47;1.20;;;;;;;;;;5088693;28;20044;-56
2024/03/27 12:24:45;;;;;;;1.88;1.13;;;;;;;;;;5091805;28;20081;-56
2024/03/27 12:27:12;;;;;;;2.20;1.00;;;;;;;;;;5094189;28;20095;-57
2024/03/27 12:29:38;;;;;;;1.48;0.70;;;;;;;;;;5090885;28;20060;-55
2024/03/27 12:32:07;;;;;;;2.33;1.10;;;;;;;;;;5090773;28;20480;-54
2024/03/27 12:34:33;;;;;;;2.42;0.85;;;;;;;;;;5077436;28;20117;-57
2024/03/27 12:37:01;;;;;;;2.60;0.88;;;;;;;;;;5079174;28;20047;-55
2024/03/27 12:39:27;;;;;;;3.13;1.10;;;;;;;;;;5094223;28;20031;-55
2024/03/27 12:41:53;;;;;;;5.35;1.42;;;;;;;;;;5094039;28;20395;-55
2024/03/27 12:44:19;;;;;;;1.25;0.68;;;;;;;;;;5096858;28;20341;-56
2024/03/27 12:46:45;;;;;;;6.40;1.20;;;;;;;;;;5093776;28;20024;-55
2024/03/27 12:49:11;;;;;;;5.63;0.90;;;;;;;;;;5089536;28;20028;-55
2024/03/27 12:51:37;;;;;;;2.20;1.00;;;;;;;;;;5093345;28;20036;-55
2024/03/27 12:54:03;;;;;;;7.60;1.30;;;;;;;;;;5093600;28;20460;-55
2024/03/27 12:56:30;;;;;;;1.90;0.73;;;;;;;;;;5093633;28;20464;-55
2024/03/27 12:58:56;;;;;;;2.35;0.80;;;;;;;;;;5091662;28;20032;-55
2024/03/27 13:01:22;;;;;;;2.63;0.80;;;;;;;;;;5093050;28;20028;-54
2024/03/27 13:03:48;;;;;;;4.05;0.98;;;;;;;;;;5086291;28;20032;-55
2024/03/27 13:06:14;;;;;;;2.15;1.00;;;;;;;;;;5086901;28;20028;-57
2024/03/27 13:08:40;;;;;;;2.67;0.90;;;;;;;;;;5085770;28;20086;-55
2024/03/27 13:11:06;;;;;;;2.15;0.82;;;;;;;;;;5079949;28;20032;-54
2024/03/27 13:13:32;;;;;;;2.15;1.00;;;;;;;;;;5087078;28;20102;-54
2024/03/27 13:15:58;;;;;;;1.48;0.77;;;;;;;;;;5092669;28;20117;-55
2024/03/27 13:18:26;;;;;;;2.55;1.10;;;;;;;;;;5092777;28;20028;-54
2024/03/27 13:20:52;;;;;;;2.63;1.20;;;;;;;;;;5089263;28;20035;-54
2024/03/27 13:23:18;;;;;;;1.85;0.70;;;;;;;;;;5086891;28;20032;-54
2024/03/27 13:25:44;;;;;;;2.45;1.05;;;;;;;;;;5084261;28;20028;-54
2024/03/27 13:28:10;;;;;;;1.73;0.75;;;;;;;;;;5093070;28;20447;-55
2024/03/27 13:30:36;;;;;;;5.30;1.02;;;;;;;;;;5081636;28;20050;-55
2024/03/27 13:33:02;;;;;;;2.20;0.85;;;;;;;;;;5085911;28;20032;-57
2024/03/27 13:35:28;;;;;;;3.90;0.98;;;;;;;;;;5090878;28;20093;-56
2024/03/27 13:37:54;;;;;;;4.55;0.90;;;;;;;;;;5091375;28;20039;-56
2024/03/27 13:40:20;;;;;;;2.50;0.77;;;;;;;;;;5088106;28;20096;-56
2024/03/27 13:42:46;;;;;;;2.85;0.80;;;;;;;;;;5092099;28;20027;-56
2024/03/27 13:45:12;;;;;;;2.22;1.05;;;;;;;;;;5090949;28;20031;-55
2024/03/27 13:47:38;;;;;;;3.58;0.77;;;;;;;;;;5090193;28;20165;-59
2024/03/27 13:50:05;;;;;;;2.42;0.55;;;;;;;;;;5087946;28;20032;-56
2024/03/27 13:52:31;;;;;;;3.47;1.33;;;;;;;;;;5089622;28;20546;-55
2024/03/27 13:54:57;;;;;;;3.03;0.90;;;;;;;;;;5089782;28;20097;-56
2024/03/27 13:57:23;;;;;;;1.58;0.95;;;;;;;;;;5088547;28;20027;-54
2024/03/27 13:59:49;;;;;;;3.63;1.13;;;;;;;;;;5089686;28;20051;-54
2024/03/27 14:02:15;;;;;;;2.97;0.80;;;;;;;;;;5089363;28;20039;-55
2024/03/27 14:04:43;;;;;;;3.65;1.10;;;;;;;;;;5087154;28;20469;-54
2024/03/27 14:07:09;;;;;;;1.92;1.20;;;;;;;;;;5087101;28;20024;-54
2024/03/27 14:09:35;;;;;;;3.03;0.80;;;;;;;;;;5088329;28;20048;-55
2024/03/27 14:12:02;;;;;;;1.95;0.65;;;;;;;;;;5088074;28;20498;-54
2024/03/27 14:14:28;;;;;;;2.55;1.00;;;;;;;;;;5090781;28;20471;-55
2024/03/27 14:16:54;;;;;;;2.17;0.90;;;;;;;;;;5081782;28;20032;-54
2024/03/27 14:19:20;;;;;;;1.90;0.90;;;;;;;;;;5091163;28;20510;-54
2024/03/27 14:21:46;;;;;;;6.07;1.40;;;;;;;;;;5083231;28;20033;-56
2024/03/27 14:24:12;;;;;;;6.50;1.00;;;;;;;;;;5084043;28;20080;-53
2024/03/27 14:26:38;;;;;;;2.08;1.10;;;;;;;;;;5084148;28;20028;-54
2024/03/27 14:29:04;;;;;;;1.50;0.77;;;;;;;;;;5087455;28;20071;-52
2024/03/27 14:31:30;;;;;;;3.25;1.33;;;;;;;;;;5091301;28;20031;-55
2024/03/27 14:33:56;;;;;;;2.25;1.02;;;;;;;;;;5089345;28;20081;-54
2024/03/27 14:36:22;;;;;;;3.25;1.20;;;;;;;;;;5091016;28;20031;-54
2024/03/27 14:38:49;;;;;;;6.03;1.10;;;;;;;;;;5091113;28;20403;-54